Woznicki-Verification

Station Obs for this morning

KLAF 280954Z AUTO 27007KT 10SM BKN065 OVC085 17/13 A2985 RMK AO2 TSB0859E23RAE15 SLP104 P0000 T01720133 KLAF 280929Z AUTO 26005KT 10SM FEW050 BKN080 BKN095 17/13 A2984 RMK AO2 LTG DSNT SE TSB0859E23RAE15 P0000 KLAF 280905Z AUTO 25009G16KT 10SM VCTS -RA FEW055 BKN075 BKN110 18/13 A2985 RMKAO2 LTG DSNT SW AND W TSB0859 P0000 KLAF 280854Z AUTO 25008KT 10SM -RA SCT070 BKN085 19/12 A2985 RMK AO2 LTG DSNT SW AND W RAB54 SLP104 P0000 60000 T01890122 56012 KLAF 280754Z AUTO 25007KT 10SM FEW050 BKN075 BKN100 19/11 A2986 RMK AO2 SLP107 T01890111

Slight Risk Verification
http://www.spc.noaa.gov/products/outlook/archive/2012/day1otlk_v_20120327_1630.gif

Tippecanoe County Precip
http://www.cocorahs.org/Maps/ViewMap.aspx?state=usa


Comments